| time (UTC) | temp F | wind direction | speed MPH | gust MPH | rain 1hr in | rain 24hr in | rain mn in | humidity % | barometer mb |
| 20260510063051 | 61 | 292 | 0.0 | 0.0 | 0.00 | 0.00 | 0.00 | 86 | 1011.8 |
| 20260510061553 | 62 | 292 | 0.0 | 0.0 | 0.00 | 0.00 | 0.00 | 85 | 1011.8 |
| 20260510060049 | 62 | 292 | 0.0 | 0.0 | 0.00 | 0.00 | 0.00 | 84 | 1011.8 |
| 20260510054550 | 63 | 292 | 0.0 | 1.0 | 0.00 | 0.00 | 0.00 | 83 | 1011.8 |
| 20260510053048 | 64 | 293 | 0.0 | 1.0 | 0.00 | 0.00 | 0.00 | 83 | 1011.8 |
| 20260510051547 | 64 | 292 | 0.0 | 2.0 | 0.00 | 0.00 | 0.00 | 82 | 1011.7 |
| 20260510050046 | 65 | 236 | 0.0 | 1.0 | 0.00 | 0.00 | 0.00 | 81 | 1011.6 |
| 20260510044549 | 65 | 245 | 0.0 | 2.0 | 0.00 | 0.00 | 0.00 | 80 | 1011.5 |
| 20260510043053 | 66 | 290 | 1.0 | 3.0 | 0.00 | 0.00 | 0.00 | 78 | 1011.3 |
| 20260510041545 | 67 | 308 | 0.0 | 1.0 | 0.00 | 0.00 | 0.00 | 76 | 1011.1 |
| 20260510040044 | 67 | 285 | 1.0 | 5.0 | 0.00 | 0.00 | 0.00 | 75 | 1010.9 |
| 20260510034543 | 68 | 167 | 0.0 | 2.0 | 0.00 | 0.00 | 0.00 | 73 | 1010.8 |
| 20260510033055 | 69 | 243 | 1.0 | 6.0 | 0.00 | 0.00 | 0.00 | 72 | 1010.5 |
| 20260510031548 | 70 | 285 | 1.0 | 4.0 | 0.00 | 0.00 | 0.00 | 71 | 1010.4 |
| 20260510030041 | 71 | 302 | 1.0 | 5.0 | 0.00 | 0.00 | 0.00 | 69 | 1010.1 |
| 20260510024545 | 72 | 327 | 2.0 | 9.0 | 0.00 | 0.00 | 0.00 | 67 | 1009.9 |
| 20260510023040 | 73 | 259 | 3.0 | 9.0 | 0.00 | 0.00 | 0.00 | 65 | 1009.6 |
| 20260510021539 | 74 | 249 | 2.0 | 11.0 | 0.00 | 0.00 | 0.00 | 62 | 1009.5 |
| 20260510020039 | 75 | 304 | 2.0 | 8.0 | 0.00 | 0.00 | 0.00 | 60 | 1009.3 |
| 20260510014537 | 76 | 294 | 5.0 | 10.0 | 0.00 | 0.00 | 0.00 | 58 | 1009.2 |
| 20260510013037 | 77 | 255 | 4.0 | 12.0 | 0.00 | 0.00 | 0.00 | 56 | 1009.1 |
| 20260510011546 | 79 | 294 | 4.0 | 10.0 | 0.00 | 0.00 | 0.00 | 54 | 1009.0 |
| 20260510010035 | 80 | 290 | 4.0 | 13.0 | 0.00 | 0.00 | 0.00 | 50 | 1009.0 |
| 20260510004534 | 81 | 237 | 6.0 | 13.0 | 0.00 | 0.00 | 0.00 | 49 | 1008.9 |
| 20260510003057 | 82 | 314 | 4.0 | 13.0 | 0.00 | 0.00 | 0.00 | 47 | 1008.9 |
| 20260510001532 | 83 | 298 | 5.0 | 13.0 | 0.00 | 0.00 | 0.00 | 46 | 1008.8 |
| 20260510000030 | 83 | 290 | 5.0 | 16.0 | 0.00 | 0.00 | 0.00 | 45 | 1008.9 |
| 20260509234530 | 84 | 249 | 5.0 | 19.0 | 0.00 | 0.00 | 0.00 | 45 | 1008.8 |
| 20260509233030 | 84 | 308 | 7.0 | 15.0 | 0.00 | 0.00 | 0.00 | 44 | 1008.8 |
| 20260509231540 | 85 | 246 | 4.0 | 15.0 | 0.00 | 0.00 | 0.00 | 43 | 1008.9 |
| 20260509230033 | 86 | 248 | 4.0 | 12.0 | 0.00 | 0.00 | 0.00 | 42 | 1009.0 |
| 20260509224526 | 86 | 267 | 4.0 | 12.0 | 0.00 | 0.00 | 0.00 | 41 | 1009.1 |
| 20260509223028 | 86 | 307 | 4.0 | 13.0 | 0.00 | 0.00 | 0.00 | 42 | 1009.1 |
| 20260509221525 | 86 | 295 | 3.0 | 12.0 | 0.00 | 0.00 | 0.00 | 41 | 1009.2 |
| 20260509220022 | 86 | 257 | 3.0 | 13.0 | 0.00 | 0.00 | 0.00 | 42 | 1009.4 |
| 20260509214521 | 87 | 296 | 5.0 | 11.0 | 0.00 | 0.00 | 0.00 | 41 | 1009.6 |
| 20260509213021 | 86 | 297 | 4.0 | 16.0 | 0.00 | 0.00 | 0.00 | 43 | 1009.8 |
| 20260509211516 | 86 | 323 | 3.0 | 10.0 | 0.00 | 0.00 | 0.00 | 42 | 1010.0 |
| 20260509210021 | 87 | 270 | 4.0 | 9.0 | 0.00 | 0.00 | 0.00 | 44 | 1010.2 |
| 20260509204512 | 86 | 279 | 3.0 | 9.0 | 0.00 | 0.00 | 0.00 | 47 | 1010.3 |
| 20260509203012 | 85 | 262 | 2.0 | 9.0 | 0.00 | 0.00 | 0.00 | 46 | 1010.5 |
| 20260509201508 | 85 | 225 | 3.0 | 8.0 | 0.00 | 0.00 | 0.00 | 46 | 1010.6 |
| 20260509200004 | 84 | 211 | 2.0 | 7.0 | 0.00 | 0.00 | 0.00 | 46 | 1010.8 |
| 20260509194558 | 82 | 242 | 4.0 | 11.0 | 0.00 | 0.00 | 0.00 | 45 | 1011.0 |
| 20260509193054 | 80 | 281 | 3.0 | 8.0 | 0.00 | 0.00 | 0.00 | 50 | 1011.2 |
| 20260509191552 | 79 | 245 | 5.0 | 11.0 | 0.00 | 0.00 | 0.00 | 49 | 1011.4 |
| 20260509190050 | 79 | 232 | 3.0 | 6.0 | 0.00 | 0.00 | 0.00 | 52 | 1011.5 |
| 20260509184546 | 78 | 219 | 3.0 | 8.0 | 0.00 | 0.00 | 0.00 | 56 | 1011.7 |
| 20260509183102 | 76 | 260 | 2.0 | 6.0 | 0.00 | 0.00 | 0.00 | 62 | 1011.7 |
| 20260509181546 | 74 | 307 | 2.0 | 7.0 | 0.00 | 0.00 | 0.00 | 63 | 1011.8 |
| 20260509180036 | 71 | 292 | 3.0 | 10.0 | 0.00 | 0.00 | 0.00 | 67 | 1011.9 |
| 20260509174536 | 71 | 301 | 3.0 | 6.0 | 0.00 | 0.00 | 0.00 | 69 | 1012.0 |
| 20260509173030 | 70 | 257 | 0.0 | 3.0 | 0.00 | 0.00 | 0.00 | 74 | 1012.2 |
| 20260509171527 | 67 | 293 | 2.0 | 5.0 | 0.00 | 0.00 | 0.00 | 79 | 1012.3 |
| 20260509170026 | 66 | 297 | 1.0 | 5.0 | 0.00 | 0.00 | 0.00 | 81 | 1012.3 |
| 20260509164522 | 65 | 217 | 0.0 | 5.0 | 0.00 | 0.00 | 0.00 | 86 | 1012.3 |
| 20260509163028 | 62 | 124 | 1.0 | 3.0 | 0.00 | 0.00 | 0.00 | 91 | 1012.4 |
| 20260509161515 | 60 | 31 | 1.0 | 4.0 | 0.00 | 0.00 | 0.00 | 93 | 1012.6 |
| 20260509160014 | 60 | 266 | 1.0 | 3.0 | 0.00 | 0.00 | 0.00 | 94 | 1012.7 |
| 20260509154512 | 60 | 284 | 0.0 | 1.0 | 0.00 | 0.00 | 0.00 | 94 | 1012.6 |
| 20260509153011 | 59 | 11 | 0.0 | 1.0 | 0.00 | 0.00 | 0.00 | 94 | 1012.6 |
| 20260509151510 | 59 | 129 | 0.0 | 1.0 | 0.00 | 0.00 | 0.00 | 94 | 1012.7 |
| 20260509150014 | 59 | 127 | 0.0 | 1.0 | 0.00 | 0.00 | 0.00 | 94 | 1012.8 |
| 20260509144520 | 58 | 285 | 0.0 | 1.0 | 0.00 | 0.00 | 0.00 | 94 | 1012.8 |
| 20260509143007 | 58 | 257 | 0.0 | 1.0 | 0.00 | 0.00 | 0.00 | 94 | 1012.7 |
| 20260509141507 | 58 | 257 | 0.0 | 1.0 | 0.00 | 0.00 | 0.00 | 94 | 1012.6 |
| 20260509140007 | 58 | 259 | 0.0 | 1.0 | 0.00 | 0.00 | 0.00 | 94 | 1012.6 |
| 20260509134506 | 58 | 243 | 0.0 | 2.0 | 0.00 | 0.00 | 0.00 | 94 | 1012.5 |
| 20260509133005 | 58 | 232 | 0.0 | 0.0 | 0.00 | 0.00 | 0.00 | 94 | 1012.4 |
| 20260509131508 | 58 | 232 | 0.0 | 1.0 | 0.00 | 0.00 | 0.00 | 94 | 1012.2 |
| 20260509130007 | 58 | 276 | 0.0 | 1.0 | 0.00 | 0.00 | 0.00 | 94 | 1012.1 |
| 20260509124503 | 58 | 278 | 0.0 | 2.0 | 0.00 | 0.00 | 0.00 | 94 | 1012.0 |
| 20260509123000 | 57 | 286 | 0.0 | 3.0 | 0.00 | 0.00 | 0.00 | 94 | 1012.0 |
| 20260509121605 | 57 | 294 | 1.0 | 2.0 | 0.00 | 0.00 | 0.00 | 94 | 1011.9 |
| 20260509120101 | 57 | 283 | 0.0 | 3.0 | 0.00 | 0.00 | 0.00 | 93 | 1012.0 |
| 20260509114602 | 57 | 281 | 0.0 | 1.0 | 0.00 | 0.00 | 0.00 | 93 | 1012.0 |
| 20260509113058 | 58 | 308 | 0.0 | 3.0 | 0.00 | 0.00 | 0.00 | 93 | 1011.8 |
| 20260509111557 | 58 | 283 | 0.0 | 2.0 | 0.00 | 0.00 | 0.00 | 93 | 1011.9 |
| 20260509110056 | 58 | 300 | 0.0 | 2.0 | 0.00 | 0.00 | 0.00 | 93 | 1011.9 |
| 20260509104555 | 58 | 345 | 0.0 | 1.0 | 0.00 | 0.00 | 0.00 | 93 | 1012.0 |
| 20260509103054 | 57 | 218 | 0.0 | 1.0 | 0.00 | 0.00 | 0.00 | 93 | 1012.1 |
| 20260509101556 | 57 | 218 | 0.0 | 0.0 | 0.00 | 0.00 | 0.00 | 92 | 1012.1 |
| 20260509100051 | 57 | 218 | 0.0 | 0.0 | 0.00 | 0.00 | 0.00 | 92 | 1012.1 |
| 20260509094549 | 57 | 218 | 0.0 | 0.0 | 0.00 | 0.00 | 0.00 | 92 | 1012.2 |
| 20260509093054 | 58 | 218 | 0.0 | 0.0 | 0.00 | 0.00 | 0.00 | 92 | 1012.4 |
| 20260509091545 | 58 | 218 | 0.0 | 0.0 | 0.00 | 0.00 | 0.00 | 91 | 1012.5 |
| 20260509090043 | 58 | 218 | 0.0 | 0.0 | 0.00 | 0.00 | 0.00 | 91 | 1012.5 |
| 20260509084550 | 58 | 218 | 0.0 | 0.0 | 0.00 | 0.00 | 0.00 | 90 | 1012.7 |
| 20260509083039 | 59 | 218 | 0.0 | 0.0 | 0.00 | 0.00 | 0.00 | 91 | 1012.6 |
| 20260509081541 | 59 | 218 | 0.0 | 0.0 | 0.00 | 0.00 | 0.00 | 91 | 1012.8 |
| 20260509080049 | 58 | 218 | 0.0 | 0.0 | 0.00 | 0.00 | 0.00 | 91 | 1012.9 |
| 20260509074537 | 58 | 218 | 0.0 | 0.0 | 0.00 | 0.00 | 0.00 | 90 | 1012.9 |
| 20260509073037 | 58 | 218 | 0.0 | 0.0 | 0.00 | 0.00 | 0.00 | 89 | 1012.9 |
| 20260509071531 | 59 | 218 | 0.0 | 0.0 | 0.00 | 0.00 | 0.00 | 89 | 1013.0 |
| 20260509070029 | 59 | 218 | 0.0 | 0.0 | 0.00 | 0.00 | 0.00 | 89 | 1013.1 |
| 20260509064528 | 60 | 218 | 0.0 | 1.0 | 0.00 | 0.00 | 0.00 | 89 | 1013.1 |